Flight Track Log - Related Links

Times and Time Zones

All times are in EDT time to prevent confusion due to time zone crossing. See the ACA831 flight status page for this flight to view local times or setup timezone preferences in your user account.

Time Position Orientation Groundspeed Altitude Reporting Facility
EDT Latitude Longitude Course Direction KTS MPH feet Rate Location/Type
Sat 04:38:20 PM 45.4680 -73.7260 180° South 105 121  Level FlightAware ADS-B
Sat 04:38:35 PM 45.4610 -73.7350 222° Southwest 160 184 1,543 Level FlightAware ADS-B
Sat 04:38:55 PM 45.4500 -73.7500 224° Southwest 158 182 900 2,700 Climbing FlightAware ADS-B
Sat 04:39:15 PM 45.4380 -73.7640 219° Southwest 179 206 1,800 2,400 Climbing FlightAware ADS-B
Sat 04:39:30 PM 45.4280 -73.7770 222° Southwest 201 231 2,300 2,571 Climbing FlightAware ADS-B
Sat 04:39:50 PM 45.4120 -73.7960 220° Southwest 225 259 3,300 3,300 Climbing FlightAware ADS-B
Sat 04:40:10 PM 45.3960 -73.8180 224° Southwest 246 283 4,500 3,600 Climbing FlightAware ADS-B
Sat 04:40:25 PM 45.3880 -73.8390 242° Southwest 259 298 5,400 3,840 Climbing FlightAware ADS-B
Sat 04:40:35 PM 45.3860 -73.8540 259° West 263 303 6,100 4,400 Climbing FlightAware ADS-B
Sat 04:40:55 PM 45.3880 -73.8880 275° West 268 308 7,600 4,579 Climbing FlightAware ADS-B
Sat 04:41:13 PM 45.3920 -73.9240 279° West 275 316 9,000 4,038 Climbing FlightAware ADS-B
Sat 04:41:47 PM 45.3950 -73.9860 274° West 302 348 11,100 3,000 Climbing FlightAware ADS-B
Sat 04:42:23 PM 45.3980 -74.0630 273° West 351 404 12,500 3,000 Climbing FlightAware ADS-B
Sat 04:42:57 PM 45.4010 -74.1460 273° West 368 423 14,600 3,833 Climbing FlightAware ADS-B
Sat 04:43:35 PM 45.4050 -74.2370 274° West 379 436 17,100 3,730 Climbing FlightAware ADS-B
Sat 04:44:11 PM 45.4080 -74.3300 273° West 393 452 19,200 3,075 Climbing FlightAware ADS-B
Sat 04:44:55 PM 45.4100 -74.3760 274° West 404 465 21,200 3,000 Climbing FlightAware ADS-B
Sat 04:45:31 PM 45.3950 -74.5370 262° West 421 484 23,200 3,042 Climbing FlightAware ADS-B
Sat 04:46:06 PM 45.3790 -74.6330 257° West 432 497 24,800 2,657 Climbing FlightAware ADS-B
Sat 04:46:41 PM 45.3620 -74.7310 256° West 443 510 26,300 2,400 Climbing FlightAware ADS-B
Sat 04:47:21 PM 45.3420 -74.8460 256° West 454 522 27,800 2,314 Climbing FlightAware ADS-B
Sat 04:47:51 PM 45.3270 -74.9350 257° West 463 533 29,000 2,719 Climbing FlightAware ADS-B
Sat 04:48:25 PM 45.3100 -75.0330 256° West 456 525 30,700 2,919 Climbing FlightAware ADS-B
Sat 04:49:05 PM 45.2900 -75.1500 256° West 450 518 32,600 2,240 Climbing FlightAware ADS-B
Sat 04:49:40 PM 45.2720 -75.2510 256° West 454 522 33,500 1,200 Climbing FlightAware ADS-B
Sat 04:50:15 PM 45.2540 -75.3520 256° West 447 514 34,000 462 Climbing FlightAware ADS-B
Sat 04:50:45 PM 45.2400 -75.4370 257° West 442 509 34,000  Level FlightAware ADS-B
Sat 04:51:25 PM 45.2200 -75.5470 256° West 440 506 34,000  Level FlightAware ADS-B
Sat 04:51:55 PM 45.2050 -75.6330 256° West 441 507 34,000  Level FlightAware ADS-B
Sat 04:52:31 PM 45.1870 -75.7320 256° West 444 511 34,000  Level FlightAware ADS-B
Sat 04:53:10 PM 45.1670 -75.8450 256° West 448 516 34,000  Level FlightAware ADS-B
Sat 04:53:40 PM 45.1520 -75.9280 256° West 448 516 34,000  Level FlightAware ADS-B
Sat 04:54:15 PM 45.1340 -76.0290 256° West 448 516 34,000  Level FlightAware ADS-B
Sat 04:55:01 PM 45.1110 -76.1550 256° West 449 517 34,000  Level FlightAware ADS-B
Sat 04:55:41 PM 45.0830 -76.2640 250° West 453 521 34,000  Level FlightAware ADS-B
Sat 04:56:17 PM 45.0460 -76.3610 242° Southwest 455 524 34,000  Level FlightAware ADS-B
Sat 04:56:53 PM 45.0070 -76.4610 241° Southwest 454 522 34,000  Level FlightAware ADS-B
Sat 04:57:36 PM 44.9660 -76.5610 240° Southwest 454 522 34,000  Level FlightAware ADS-B
Sat 04:58:16 PM 44.9250 -76.6660 241° Southwest 454 522 34,000  Level FlightAware ADS-B
Sat 04:58:51 PM 44.8910 -76.7500 240° Southwest 454 522 34,000  Level FlightAware ADS-B
Sat 04:59:26 PM 44.8520 -76.8480 241° Southwest 453 521 34,000 -600 Level FlightAware ADS-B
Sat 05:00:01 PM 44.8150 -76.9390 240° Southwest 455 524 33,300 -1,286 Descending FlightAware ADS-B
Sat 05:00:36 PM 44.7800 -77.0270 241° Southwest 458 527 32,500 -1,371 Descending FlightAware ADS-B
Sat 05:01:11 PM 44.7430 -77.1180 240° Southwest 461 531 31,700 -1,114 Descending FlightAware ADS-B
Sat 05:01:46 PM 44.7060 -77.2100 241° Southwest 456 525 31,200 -923 Descending FlightAware ADS-B
Sat 05:02:16 PM 44.6760 -77.2820 240° Southwest 452 520 30,700 -943 Descending FlightAware ADS-B
Sat 05:02:56 PM 44.6340 -77.3840 240° Southwest 448 516 30,100 -960 Descending FlightAware ADS-B
Sat 05:03:31 PM 44.5970 -77.4740 240° Southwest 446 513 29,500 -960 Descending FlightAware ADS-B
Sat 05:04:11 PM 44.5570 -77.5710 240° Southwest 444 511 28,900 -880 Descending FlightAware ADS-B
Sat 05:04:46 PM 44.5220 -77.6540 239° Southwest 442 509 28,400 -1,286 Descending FlightAware ADS-B
Sat 05:05:21 PM 44.4850 -77.7450 240° Southwest 433 498 27,400 -2,057 Descending FlightAware ADS-B
Sat 05:05:56 PM 44.4510 -77.8270 240° Southwest 428 493 26,000 -2,229 Descending FlightAware ADS-B
Sat 05:06:31 PM 44.4190 -77.9030 239° Southwest 421 484 24,800 -2,314 Descending FlightAware ADS-B
Sat 05:07:06 PM 44.3810 -77.9950 240° Southwest 414 476 23,300 -2,320 Descending FlightAware ADS-B
Sat 05:07:46 PM 44.3460 -78.0790 240° Southwest 406 467 21,900 -2,229 Descending FlightAware ADS-B
Sat 05:08:16 PM 44.3160 -78.1510 240° Southwest 400 460 20,700 -2,400 Descending FlightAware ADS-B
Sat 05:08:51 PM 44.2820 -78.2300 239° Southwest 393 452 19,300 -2,314 Descending FlightAware ADS-B
Sat 05:09:26 PM 44.2510 -78.3050 240° Southwest 387 445 18,000 -2,400 Descending FlightAware ADS-B
Sat 05:10:01 PM 44.2180 -78.3820 239° Southwest 387 445 16,500 -2,314 Descending FlightAware ADS-B
Sat 05:10:36 PM 44.1890 -78.4500 239° Southwest 379 436 15,300 -2,028 Descending FlightAware ADS-B
Sat 05:11:12 PM 44.1570 -78.5230 239° Southwest 371 427 14,100 -1,440 Descending FlightAware ADS-B
Sat 05:11:51 PM 44.1220 -78.6070 240° Southwest 350 403 13,500 -1,304 Descending FlightAware ADS-B
Sat 05:12:21 PM 44.0980 -78.6610 238° Southwest 341 392 12,600 -2,031 Descending FlightAware ADS-B
Sat 05:12:56 PM 44.0720 -78.7220 239° Southwest 339 390 11,300 -2,143 Descending FlightAware ADS-B
Sat 05:13:31 PM 44.0410 -78.7930 239° Southwest 333 383 10,100 -1,680 Descending FlightAware ADS-B
Sat 05:13:46 PM 44.0290 -78.8140 232° Southwest 310 357 9,900 -514 Descending FlightAware ADS-B
Sat 05:14:06 PM 44.0080 -78.8460 228° Southwest 284 327 9,800 -450 Descending FlightAware ADS-B
Sat 05:14:26 PM 43.9920 -78.8710 228° Southwest 267 307 9,600 -1,067 Descending FlightAware ADS-B
Sat 05:14:51 PM 43.9710 -78.9030 228° Southwest 262 302 9,000 -1,067 Descending FlightAware ADS-B
Sat 05:15:11 PM 43.9550 -78.9280 228° Southwest 254 292 8,800 -686 Descending FlightAware ADS-B
Sat 05:15:26 PM 43.9430 -78.9450 226° Southwest 248 285 8,600 -1,029 Descending FlightAware ADS-B
Sat 05:15:46 PM 43.9270 -78.9680 226° Southwest 243 280 8,200 -1,371 Descending FlightAware ADS-B
Sat 05:16:01 PM 43.9160 -78.9860 230° Southwest 242 278 7,800 -1,371 Descending FlightAware ADS-B
Sat 05:16:21 PM 43.9000 -79.0080 225° Southwest 241 277 7,400 -1,200 Descending FlightAware ADS-B
Sat 05:16:36 PM 43.8890 -79.0250 228° Southwest 240 276 7,100 -1,200 Descending FlightAware ADS-B
Sat 05:17:01 PM 43.8710 -79.0530 228° Southwest 238 274 6,600 -1,200 Descending FlightAware ADS-B
Sat 05:17:11 PM 43.8660 -79.0670 244° Southwest 238 274 6,400 -1,200 Descending FlightAware ADS-B
Sat 05:17:16 PM 43.8650 -79.0750 260° West 239 275 6,300 -1,200 Descending FlightAware ADS-B
Sat 05:17:21 PM 43.8640 -79.0820 259° West 239 275 6,200 -1,029 Descending FlightAware ADS-B
Sat 05:17:51 PM 43.8650 -79.1280 272° West 239 275 5,700 -982 Descending FlightAware ADS-B
Sat 05:18:16 PM 43.8660 -79.1640 272° West 236 272 5,300 -1,200 Descending FlightAware ADS-B
Sat 05:18:31 PM 43.8670 -79.1890 273° West 236 272 4,900 -900 Descending FlightAware ADS-B
Sat 05:18:56 PM 43.8680 -79.2230 272° West 232 267 4,700 -293 Descending FlightAware ADS-B
Sat 05:19:12 PM 43.8690 -79.2480 273° West 230 265 4,700  Level FlightAware ADS-B
Sat 05:19:31 PM 43.8690 -79.2760 270° West 215 247 4,700 -400 Level FlightAware ADS-B
Sat 05:19:42 PM 43.8690 -79.2900 270° West 210 242 4,500 -900 Descending FlightAware ADS-B
Sat 05:19:51 PM 43.8670 -79.3030 258° West 206 237 4,400 -1,286 Descending FlightAware ADS-B
Sat 05:19:56 PM 43.8660 -79.3090 257° West 205 236 4,200 -1,200 Descending FlightAware ADS-B
Sat 05:20:21 PM 43.8510 -79.3350 231° Southwest 204 235 3,800 -1,050 Descending FlightAware ADS-B
Sat 05:20:36 PM 43.8420 -79.3500 230° Southwest 198 228 3,500 -1,200 Descending FlightAware ADS-B
Sat 05:20:51 PM 43.8330 -79.3630 226° Southwest 199 229 3,200 -1,200 Descending FlightAware ADS-B
Sat 05:21:16 PM 43.8170 -79.3860 226° Southwest 199 229 2,700 -667 Descending FlightAware ADS-B
Sat 05:21:36 PM 43.8050 -79.4040 227° Southwest 201 231 2,700  Level FlightAware ADS-B
Sat 05:21:51 PM 43.7950 -79.4190 227° Southwest 203 234 2,700  Level FlightAware ADS-B
Sat 05:22:11 PM 43.7820 -79.4380 227° Southwest 191 220 2,700  Level FlightAware ADS-B
Sat 05:22:31 PM 43.7700 -79.4540 224° Southwest 177 204 2,700  Level FlightAware ADS-B
Sat 05:22:51 PM 43.7590 -79.4700 226° Southwest 176 203 2,700 -343 Level FlightAware ADS-B
Sat 05:23:06 PM 43.7500 -79.4840 228° Southwest 181 208 2,500 -1,029 Descending FlightAware ADS-B
Sat 05:23:26 PM 43.7390 -79.5000 226° Southwest 178 205 2,100 -1,029 Descending FlightAware ADS-B
Sat 05:23:41 PM 43.7310 -79.5120 227° Southwest 174 200 1,900 -900 Descending FlightAware ADS-B
Sat 05:24:06 PM 43.7170 -79.5320 226° Southwest 166 191 1,500 -900 Descending FlightAware ADS-B
Sat 05:24:21 PM 43.7090 -79.5430 225° Southwest 152 175 1,300 -686 Descending FlightAware ADS-B
Sat 05:24:41 PM 43.7010 -79.5560 230° Southwest 142 163 1,100 -667 Descending FlightAware ADS-B
Sat 05:25:06 PM 43.6890 -79.5730 226° Southwest 145 167 800 -800 Descending FlightAware ADS-B
Sat 05:25:26 PM 43.6800 -79.5860 226° Southwest 146 168 500 -585 Descending FlightAware ADS-B
Sat 05:25:47 PM 43.6740 -79.5940 224° Southwest 146 168 400 -286 Descending FlightAware ADS-B
Sat 05:26:03 PM 43.6640 -79.6090 227° Southwest 120 138 -1,500 Descending FlightAware ADS-B
Sat 05:26:31 PM 43.6550 -79.6230 228° Southwest 120 138  Level FlightAware ADS-B

Login

Don't have an account? Register now (free) for customized features, flight alerts, and more!